sensor_id;sensor_type;location;lat;lon;timestamp;temperature;humidity
10848;DHT22;5477;48.806;9.154;2023-08-30T00:00:06;13.10;99.90
10848;DHT22;5477;48.806;9.154;2023-08-30T00:02:34;13.20;99.90
10848;DHT22;5477;48.806;9.154;2023-08-30T00:05:05;13.10;99.90
10848;DHT22;5477;48.806;9.154;2023-08-30T00:07:33;13.10;99.90
10848;DHT22;5477;48.806;9.154;2023-08-30T00:10:01;13.10;99.90
10848;DHT22;5477;48.806;9.154;2023-08-30T00:12:30;13.10;99.90
10848;DHT22;5477;48.806;9.154;2023-08-30T00:14:58;13.10;99.90
10848;DHT22;5477;48.806;9.154;2023-08-30T00:17:26;13.10;99.90
10848;DHT22;5477;48.806;9.154;2023-08-30T00:19:54;13.10;99.90
10848;DHT22;5477;48.806;9.154;2023-08-30T00:22:24;13.20;99.90
10848;DHT22;5477;48.806;9.154;2023-08-30T00:24:52;13.20;99.90
10848;DHT22;5477;48.806;9.154;2023-08-30T00:27:20;13.20;99.90
10848;DHT22;5477;48.806;9.154;2023-08-30T00:29:49;13.20;99.90
10848;DHT22;5477;48.806;9.154;2023-08-30T00:32:17;13.20;99.90
10848;DHT22;5477;48.806;9.154;2023-08-30T00:34:45;13.30;99.90
10848;DHT22;5477;48.806;9.154;2023-08-30T00:37:13;13.30;99.90
10848;DHT22;5477;48.806;9.154;2023-08-30T00:39:43;13.30;99.90
10848;DHT22;5477;48.806;9.154;2023-08-30T00:42:11;13.30;99.90
10848;DHT22;5477;48.806;9.154;2023-08-30T00:44:38;13.30;99.90
10848;DHT22;5477;48.806;9.154;2023-08-30T00:47:07;13.30;99.90
10848;DHT22;5477;48.806;9.154;2023-08-30T00:49:35;13.30;99.90
10848;DHT22;5477;48.806;9.154;2023-08-30T00:52:07;13.30;99.90
10848;DHT22;5477;48.806;9.154;2023-08-30T00:54:36;13.30;99.90
10848;DHT22;5477;48.806;9.154;2023-08-30T00:57:06;13.30;99.90
10848;DHT22;5477;48.806;9.154;2023-08-30T00:59:35;13.30;99.90
10848;DHT22;5477;48.806;9.154;2023-08-30T01:02:04;13.30;99.90
10848;DHT22;5477;48.806;9.154;2023-08-30T01:04:33;13.30;99.90
10848;DHT22;5477;48.806;9.154;2023-08-30T01:07:01;13.30;99.90
10848;DHT22;5477;48.806;9.154;2023-08-30T01:09:29;13.30;99.90
10848;DHT22;5477;48.806;9.154;2023-08-30T01:12:03;13.20;99.90
10848;DHT22;5477;48.806;9.154;2023-08-30T01:14:39;13.20;99.90
10848;DHT22;5477;48.806;9.154;2023-08-30T01:17:10;13.20;99.90
10848;DHT22;5477;48.806;9.154;2023-08-30T01:19:46;13.20;99.90
10848;DHT22;5477;48.806;9.154;2023-08-30T01:22:19;13.20;99.90
10848;DHT22;5477;48.806;9.154;2023-08-30T01:24:58;13.20;99.90
10848;DHT22;5477;48.806;9.154;2023-08-30T01:27:31;13.10;99.90
10848;DHT22;5477;48.806;9.154;2023-08-30T01:30:02;13.10;99.90
10848;DHT22;5477;48.806;9.154;2023-08-30T01:32:31;13.20;99.90
10848;DHT22;5477;48.806;9.154;2023-08-30T01:35:02;13.20;99.90
10848;DHT22;5477;48.806;9.154;2023-08-30T01:37:32;13.20;99.90
10848;DHT22;5477;48.806;9.154;2023-08-30T01:40:02;13.20;99.90
10848;DHT22;5477;48.806;9.154;2023-08-30T01:42:33;13.20;99.90
10848;DHT22;5477;48.806;9.154;2023-08-30T01:45:03;13.10;99.90
10848;DHT22;5477;48.806;9.154;2023-08-30T01:47:35;13.10;99.90
10848;DHT22;5477;48.806;9.154;2023-08-30T01:50:04;13.00;99.90
10848;DHT22;5477;48.806;9.154;2023-08-30T01:52:32;13.00;99.90
10848;DHT22;5477;48.806;9.154;2023-08-30T01:55:02;12.90;99.90
10848;DHT22;5477;48.806;9.154;2023-08-30T01:57:32;12.90;99.90
10848;DHT22;5477;48.806;9.154;2023-08-30T02:00:00;12.90;99.90
10848;DHT22;5477;48.806;9.154;2023-08-30T02:02:29;12.80;99.90
10848;DHT22;5477;48.806;9.154;2023-08-30T02:04:57;12.70;99.90
10848;DHT22;5477;48.806;9.154;2023-08-30T02:07:33;12.70;99.90
10848;DHT22;5477;48.806;9.154;2023-08-30T02:10:08;12.80;99.90
10848;DHT22;5477;48.806;9.154;2023-08-30T02:12:42;12.70;99.90
10848;DHT22;5477;48.806;9.154;2023-08-30T02:15:12;12.70;99.90
10848;DHT22;5477;48.806;9.154;2023-08-30T02:17:41;12.60;99.90
10848;DHT22;5477;48.806;9.154;2023-08-30T02:20:11;12.60;99.90
10848;DHT22;5477;48.806;9.154;2023-08-30T02:22:39;12.60;99.90
10848;DHT22;5477;48.806;9.154;2023-08-30T02:25:08;12.50;99.90
10848;DHT22;5477;48.806;9.154;2023-08-30T02:27:38;12.60;99.90
10848;DHT22;5477;48.806;9.154;2023-08-30T02:30:08;12.50;99.90
10848;DHT22;5477;48.806;9.154;2023-08-30T02:32:36;12.50;99.90
10848;DHT22;5477;48.806;9.154;2023-08-30T02:35:05;12.50;99.90
10848;DHT22;5477;48.806;9.154;2023-08-30T02:37:33;12.50;99.90
10848;DHT22;5477;48.806;9.154;2023-08-30T02:40:01;12.50;99.90
10848;DHT22;5477;48.806;9.154;2023-08-30T02:42:29;12.50;99.90
10848;DHT22;5477;48.806;9.154;2023-08-30T02:44:59;12.40;99.90
10848;DHT22;5477;48.806;9.154;2023-08-30T02:50:55;12.40;99.90
10848;DHT22;5477;48.806;9.154;2023-08-30T02:57:33;12.30;99.90
10848;DHT22;5477;48.806;9.154;2023-08-30T03:00:26;12.30;99.90
10848;DHT22;5477;48.806;9.154;2023-08-30T03:03:07;12.20;99.90
10848;DHT22;5477;48.806;9.154;2023-08-30T03:06:57;12.20;99.90
10848;DHT22;5477;48.806;9.154;2023-08-30T03:10:08;12.10;99.90
10848;DHT22;5477;48.806;9.154;2023-08-30T03:13:08;12.10;99.90
10848;DHT22;5477;48.806;9.154;2023-08-30T03:15:55;12.00;99.90
10848;DHT22;5477;48.806;9.154;2023-08-30T03:19:25;12.00;99.90
10848;DHT22;5477;48.806;9.154;2023-08-30T03:22:38;12.10;99.90
10848;DHT22;5477;48.806;9.154;2023-08-30T03:26:07;12.10;99.90
10848;DHT22;5477;48.806;9.154;2023-08-30T03:29:28;12.10;99.90
10848;DHT22;5477;48.806;9.154;2023-08-30T03:32:47;12.10;99.90
10848;DHT22;5477;48.806;9.154;2023-08-30T03:39:25;12.30;99.90
10848;DHT22;5477;48.806;9.154;2023-08-30T03:42:28;12.30;99.90
10848;DHT22;5477;48.806;9.154;2023-08-30T03:45:14;12.30;99.90
10848;DHT22;5477;48.806;9.154;2023-08-30T03:48:20;12.40;99.90
10848;DHT22;5477;48.806;9.154;2023-08-30T03:52:06;12.40;99.90
10848;DHT22;5477;48.806;9.154;2023-08-30T03:55:57;12.40;99.90
10848;DHT22;5477;48.806;9.154;2023-08-30T03:59:22;12.50;99.90
10848;DHT22;5477;48.806;9.154;2023-08-30T04:02:58;12.50;99.90
10848;DHT22;5477;48.806;9.154;2023-08-30T04:09:30;12.60;99.90
10848;DHT22;5477;48.806;9.154;2023-08-30T04:12:44;12.60;99.90
10848;DHT22;5477;48.806;9.154;2023-08-30T04:15:37;12.50;99.90
10848;DHT22;5477;48.806;9.154;2023-08-30T04:19:24;12.60;99.90
10848;DHT22;5477;48.806;9.154;2023-08-30T04:23:11;12.50;99.90
10848;DHT22;5477;48.806;9.154;2023-08-30T04:26:41;12.50;99.90
10848;DHT22;5477;48.806;9.154;2023-08-30T04:33:23;12.50;99.90
10848;DHT22;5477;48.806;9.154;2023-08-30T04:36:49;12.50;99.90
10848;DHT22;5477;48.806;9.154;2023-08-30T04:39:49;12.50;99.90
10848;DHT22;5477;48.806;9.154;2023-08-30T04:47:13;12.50;99.90
10848;DHT22;5477;48.806;9.154;2023-08-30T04:50:42;12.60;99.90
10848;DHT22;5477;48.806;9.154;2023-08-30T04:53:47;12.60;99.90
10848;DHT22;5477;48.806;9.154;2023-08-30T04:56:41;12.60;99.90
10848;DHT22;5477;48.806;9.154;2023-08-30T05:00:23;12.70;99.90
10848;DHT22;5477;48.806;9.154;2023-08-30T05:03:43;12.60;99.90
10848;DHT22;5477;48.806;9.154;2023-08-30T05:07:15;12.70;99.90
10848;DHT22;5477;48.806;9.154;2023-08-30T05:10:41;12.70;99.90
10848;DHT22;5477;48.806;9.154;2023-08-30T05:14:16;12.80;99.90
10848;DHT22;5477;48.806;9.154;2023-08-30T05:17:35;12.80;99.90
10848;DHT22;5477;48.806;9.154;2023-08-30T05:20:53;12.90;99.90
10848;DHT22;5477;48.806;9.154;2023-08-30T05:28:13;13.00;99.90
10848;DHT22;5477;48.806;9.154;2023-08-30T05:31:36;13.10;99.90
10848;DHT22;5477;48.806;9.154;2023-08-30T05:35:04;13.20;99.90
10848;DHT22;5477;48.806;9.154;2023-08-30T05:42:16;13.20;99.90
10848;DHT22;5477;48.806;9.154;2023-08-30T05:45:33;13.20;99.90
10848;DHT22;5477;48.806;9.154;2023-08-30T05:48:51;13.20;99.90
10848;DHT22;5477;48.806;9.154;2023-08-30T05:51:52;13.20;99.90
10848;DHT22;5477;48.806;9.154;2023-08-30T05:54:36;13.20;99.90
10848;DHT22;5477;48.806;9.154;2023-08-30T05:58:21;13.20;99.90
10848;DHT22;5477;48.806;9.154;2023-08-30T06:01:46;13.20;99.90
10848;DHT22;5477;48.806;9.154;2023-08-30T06:04:47;13.30;99.90
10848;DHT22;5477;48.806;9.154;2023-08-30T06:07:15;13.40;99.90
10848;DHT22;5477;48.806;9.154;2023-08-30T06:09:44;13.40;99.90
10848;DHT22;5477;48.806;9.154;2023-08-30T06:12:13;13.60;99.90
10848;DHT22;5477;48.806;9.154;2023-08-30T06:14:40;13.60;99.90
10848;DHT22;5477;48.806;9.154;2023-08-30T06:17:09;13.60;99.90
10848;DHT22;5477;48.806;9.154;2023-08-30T06:19:37;13.70;99.90
10848;DHT22;5477;48.806;9.154;2023-08-30T06:22:05;13.70;99.90
10848;DHT22;5477;48.806;9.154;2023-08-30T06:24:34;13.80;99.90
10848;DHT22;5477;48.806;9.154;2023-08-30T06:27:04;13.80;99.90
10848;DHT22;5477;48.806;9.154;2023-08-30T06:29:32;14.00;99.90
10848;DHT22;5477;48.806;9.154;2023-08-30T06:32:00;14.00;99.90
10848;DHT22;5477;48.806;9.154;2023-08-30T06:34:28;14.20;99.90
10848;DHT22;5477;48.806;9.154;2023-08-30T06:36:57;14.30;99.90
10848;DHT22;5477;48.806;9.154;2023-08-30T06:39:25;14.40;99.90
10848;DHT22;5477;48.806;9.154;2023-08-30T06:41:53;14.50;99.90
10848;DHT22;5477;48.806;9.154;2023-08-30T06:44:28;14.50;99.90
10848;DHT22;5477;48.806;9.154;2023-08-30T06:46:56;14.50;99.90
10848;DHT22;5477;48.806;9.154;2023-08-30T06:49:28;14.50;99.90
10848;DHT22;5477;48.806;9.154;2023-08-30T06:51:58;14.60;99.90
10848;DHT22;5477;48.806;9.154;2023-08-30T06:54:28;14.60;99.90
10848;DHT22;5477;48.806;9.154;2023-08-30T06:56:57;14.60;99.90
10848;DHT22;5477;48.806;9.154;2023-08-30T06:59:28;14.60;99.90
10848;DHT22;5477;48.806;9.154;2023-08-30T07:01:56;14.60;99.90
10848;DHT22;5477;48.806;9.154;2023-08-30T07:04:24;14.60;99.90
10848;DHT22;5477;48.806;9.154;2023-08-30T07:06:52;14.60;99.90
10848;DHT22;5477;48.806;9.154;2023-08-30T07:09:20;14.60;99.90
10848;DHT22;5477;48.806;9.154;2023-08-30T07:11:50;14.60;99.90
10848;DHT22;5477;48.806;9.154;2023-08-30T07:14:18;14.60;99.90
10848;DHT22;5477;48.806;9.154;2023-08-30T07:16:48;14.60;99.90
10848;DHT22;5477;48.806;9.154;2023-08-30T07:19:17;14.70;99.90
10848;DHT22;5477;48.806;9.154;2023-08-30T07:21:45;14.80;99.90
10848;DHT22;5477;48.806;9.154;2023-08-30T07:24:13;14.80;99.90
10848;DHT22;5477;48.806;9.154;2023-08-30T07:26:41;14.90;99.90
10848;DHT22;5477;48.806;9.154;2023-08-30T07:29:09;14.90;99.90
10848;DHT22;5477;48.806;9.154;2023-08-30T07:31:37;14.90;99.90
10848;DHT22;5477;48.806;9.154;2023-08-30T07:34:06;14.90;99.90
10848;DHT22;5477;48.806;9.154;2023-08-30T07:36:34;14.90;99.90
10848;DHT22;5477;48.806;9.154;2023-08-30T07:39:13;14.80;99.90
10848;DHT22;5477;48.806;9.154;2023-08-30T07:41:42;14.90;99.90
10848;DHT22;5477;48.806;9.154;2023-08-30T07:44:10;14.90;99.90
10848;DHT22;5477;48.806;9.154;2023-08-30T07:46:38;15.00;99.90
10848;DHT22;5477;48.806;9.154;2023-08-30T07:49:07;15.10;99.90
10848;DHT22;5477;48.806;9.154;2023-08-30T07:51:35;15.20;99.90
10848;DHT22;5477;48.806;9.154;2023-08-30T07:54:03;15.30;99.90
10848;DHT22;5477;48.806;9.154;2023-08-30T07:56:31;15.30;99.90
10848;DHT22;5477;48.806;9.154;2023-08-30T07:58:59;15.30;99.90
10848;DHT22;5477;48.806;9.154;2023-08-30T08:01:27;15.30;99.90
10848;DHT22;5477;48.806;9.154;2023-08-30T08:03:56;15.40;99.90
10848;DHT22;5477;48.806;9.154;2023-08-30T08:06:35;15.40;99.90
10848;DHT22;5477;48.806;9.154;2023-08-30T08:09:04;15.50;99.90
10848;DHT22;5477;48.806;9.154;2023-08-30T08:11:34;15.50;99.90
10848;DHT22;5477;48.806;9.154;2023-08-30T08:14:02;15.60;99.90
10848;DHT22;5477;48.806;9.154;2023-08-30T08:16:31;15.70;99.90
10848;DHT22;5477;48.806;9.154;2023-08-30T08:18:59;15.80;99.90
10848;DHT22;5477;48.806;9.154;2023-08-30T08:21:28;15.80;99.90
10848;DHT22;5477;48.806;9.154;2023-08-30T08:23:57;15.90;99.90
10848;DHT22;5477;48.806;9.154;2023-08-30T08:26:25;16.00;99.90
10848;DHT22;5477;48.806;9.154;2023-08-30T08:28:53;15.90;99.90
10848;DHT22;5477;48.806;9.154;2023-08-30T08:31:21;16.00;99.90
10848;DHT22;5477;48.806;9.154;2023-08-30T08:33:51;16.00;99.90
10848;DHT22;5477;48.806;9.154;2023-08-30T08:36:20;16.00;99.90
10848;DHT22;5477;48.806;9.154;2023-08-30T08:38:48;16.00;99.90
10848;DHT22;5477;48.806;9.154;2023-08-30T08:41:18;16.20;99.90
10848;DHT22;5477;48.806;9.154;2023-08-30T08:43:46;16.30;99.90
10848;DHT22;5477;48.806;9.154;2023-08-30T08:46:16;16.50;99.90
10848;DHT22;5477;48.806;9.154;2023-08-30T08:48:46;16.60;99.90
10848;DHT22;5477;48.806;9.154;2023-08-30T08:51:16;16.60;99.90
10848;DHT22;5477;48.806;9.154;2023-08-30T08:53:44;16.60;99.90
10848;DHT22;5477;48.806;9.154;2023-08-30T08:56:13;16.60;99.90
10848;DHT22;5477;48.806;9.154;2023-08-30T08:58:43;16.60;99.90
10848;DHT22;5477;48.806;9.154;2023-08-30T09:01:12;16.70;99.90
10848;DHT22;5477;48.806;9.154;2023-08-30T09:04:01;16.80;99.90
10848;DHT22;5477;48.806;9.154;2023-08-30T09:06:31;16.90;99.90
10848;DHT22;5477;48.806;9.154;2023-08-30T09:09:00;17.10;99.90
10848;DHT22;5477;48.806;9.154;2023-08-30T09:11:30;17.30;99.90
10848;DHT22;5477;48.806;9.154;2023-08-30T09:14:18;17.60;99.90
10848;DHT22;5477;48.806;9.154;2023-08-30T09:16:54;17.70;99.90
10848;DHT22;5477;48.806;9.154;2023-08-30T09:19:22;18.00;99.90
10848;DHT22;5477;48.806;9.154;2023-08-30T09:21:51;18.20;99.90
10848;DHT22;5477;48.806;9.154;2023-08-30T09:24:19;18.50;99.90
10848;DHT22;5477;48.806;9.154;2023-08-30T09:26:48;18.60;99.90
10848;DHT22;5477;48.806;9.154;2023-08-30T09:29:19;18.80;99.90
10848;DHT22;5477;48.806;9.154;2023-08-30T09:31:51;18.90;99.90
10848;DHT22;5477;48.806;9.154;2023-08-30T09:34:22;19.00;99.90
10848;DHT22;5477;48.806;9.154;2023-08-30T09:36:50;19.10;99.90
10848;DHT22;5477;48.806;9.154;2023-08-30T09:39:19;19.20;99.90
10848;DHT22;5477;48.806;9.154;2023-08-30T09:41:48;19.20;99.90
10848;DHT22;5477;48.806;9.154;2023-08-30T09:44:19;19.20;99.90
10848;DHT22;5477;48.806;9.154;2023-08-30T09:46:50;19.20;99.90
10848;DHT22;5477;48.806;9.154;2023-08-30T09:49:20;19.50;99.90
10848;DHT22;5477;48.806;9.154;2023-08-30T09:51:50;19.70;99.90
10848;DHT22;5477;48.806;9.154;2023-08-30T09:54:20;19.80;99.90
10848;DHT22;5477;48.806;9.154;2023-08-30T09:57:05;20.00;99.90
10848;DHT22;5477;48.806;9.154;2023-08-30T09:59:36;20.20;99.90
10848;DHT22;5477;48.806;9.154;2023-08-30T10:02:05;20.30;99.90
10848;DHT22;5477;48.806;9.154;2023-08-30T10:04:35;20.50;99.90
10848;DHT22;5477;48.806;9.154;2023-08-30T10:07:07;20.60;99.90
10848;DHT22;5477;48.806;9.154;2023-08-30T10:09:37;20.70;99.90
10848;DHT22;5477;48.806;9.154;2023-08-30T10:12:21;20.80;99.90
10848;DHT22;5477;48.806;9.154;2023-08-30T10:14:50;20.90;99.90
10848;DHT22;5477;48.806;9.154;2023-08-30T10:17:20;21.00;99.90
10848;DHT22;5477;48.806;9.154;2023-08-30T10:19:50;21.10;99.90
10848;DHT22;5477;48.806;9.154;2023-08-30T10:22:21;21.30;99.90
10848;DHT22;5477;48.806;9.154;2023-08-30T10:24:54;21.20;99.90
10848;DHT22;5477;48.806;9.154;2023-08-30T10:27:29;21.10;99.90
10848;DHT22;5477;48.806;9.154;2023-08-30T10:30:01;20.90;99.90
10848;DHT22;5477;48.806;9.154;2023-08-30T10:32:30;20.90;99.90
10848;DHT22;5477;48.806;9.154;2023-08-30T10:35:01;20.50;99.90
10848;DHT22;5477;48.806;9.154;2023-08-30T10:37:30;20.20;99.90
10848;DHT22;5477;48.806;9.154;2023-08-30T10:40:01;20.40;99.90
10848;DHT22;5477;48.806;9.154;2023-08-30T10:42:30;20.50;99.90
10848;DHT22;5477;48.806;9.154;2023-08-30T10:45:01;20.80;99.90
10848;DHT22;5477;48.806;9.154;2023-08-30T10:47:40;21.10;99.90
10848;DHT22;5477;48.806;9.154;2023-08-30T10:50:10;21.40;99.90
10848;DHT22;5477;48.806;9.154;2023-08-30T10:52:39;21.80;99.90
10848;DHT22;5477;48.806;9.154;2023-08-30T10:55:07;22.20;99.90
10848;DHT22;5477;48.806;9.154;2023-08-30T10:57:36;22.60;99.90
10848;DHT22;5477;48.806;9.154;2023-08-30T11:00:07;22.90;99.90
10848;DHT22;5477;48.806;9.154;2023-08-30T11:02:37;23.20;99.90
10848;DHT22;5477;48.806;9.154;2023-08-30T11:05:06;23.30;99.90
10848;DHT22;5477;48.806;9.154;2023-08-30T11:07:35;23.40;99.90
10848;DHT22;5477;48.806;9.154;2023-08-30T11:10:04;23.60;99.90
10848;DHT22;5477;48.806;9.154;2023-08-30T11:12:33;23.50;99.90
10848;DHT22;5477;48.806;9.154;2023-08-30T11:15:03;23.40;99.90
10848;DHT22;5477;48.806;9.154;2023-08-30T11:17:33;23.40;99.90
10848;DHT22;5477;48.806;9.154;2023-08-30T11:20:08;23.10;99.90
10848;DHT22;5477;48.806;9.154;2023-08-30T11:22:37;23.00;99.90
10848;DHT22;5477;48.806;9.154;2023-08-30T11:25:08;22.70;99.90
10848;DHT22;5477;48.806;9.154;2023-08-30T11:27:36;22.40;99.90
10848;DHT22;5477;48.806;9.154;2023-08-30T11:30:06;22.20;99.90
10848;DHT22;5477;48.806;9.154;2023-08-30T11:32:37;21.80;99.90
10848;DHT22;5477;48.806;9.154;2023-08-30T11:35:07;21.30;99.90
10848;DHT22;5477;48.806;9.154;2023-08-30T11:37:35;20.50;99.90
10848;DHT22;5477;48.806;9.154;2023-08-30T11:40:04;20.00;99.90
10848;DHT22;5477;48.806;9.154;2023-08-30T11:42:33;19.60;99.90
10848;DHT22;5477;48.806;9.154;2023-08-30T11:45:01;19.10;99.90
10848;DHT22;5477;48.806;9.154;2023-08-30T11:47:31;18.80;99.90
10848;DHT22;5477;48.806;9.154;2023-08-30T11:50:00;18.40;99.90
10848;DHT22;5477;48.806;9.154;2023-08-30T11:52:28;18.10;99.90
10848;DHT22;5477;48.806;9.154;2023-08-30T11:54:57;17.90;99.90
10848;DHT22;5477;48.806;9.154;2023-08-30T11:57:26;17.80;99.90
10848;DHT22;5477;48.806;9.154;2023-08-30T11:59:54;17.70;99.90
10848;DHT22;5477;48.806;9.154;2023-08-30T12:02:22;17.60;99.90
10848;DHT22;5477;48.806;9.154;2023-08-30T12:04:51;17.50;99.90
10848;DHT22;5477;48.806;9.154;2023-08-30T12:07:25;17.60;99.90
10848;DHT22;5477;48.806;9.154;2023-08-30T12:10:04;17.50;99.90
10848;DHT22;5477;48.806;9.154;2023-08-30T12:12:32;17.50;99.90
10848;DHT22;5477;48.806;9.154;2023-08-30T12:15:00;17.40;99.90
10848;DHT22;5477;48.806;9.154;2023-08-30T12:17:29;17.30;99.90
10848;DHT22;5477;48.806;9.154;2023-08-30T12:19:58;17.30;99.90
10848;DHT22;5477;48.806;9.154;2023-08-30T12:22:37;17.20;99.90
10848;DHT22;5477;48.806;9.154;2023-08-30T12:25:15;17.20;99.90
10848;DHT22;5477;48.806;9.154;2023-08-30T12:27:44;17.10;99.90
10848;DHT22;5477;48.806;9.154;2023-08-30T12:30:13;17.20;99.90
10848;DHT22;5477;48.806;9.154;2023-08-30T12:32:41;17.20;99.90
10848;DHT22;5477;48.806;9.154;2023-08-30T12:35:09;17.10;99.90
10848;DHT22;5477;48.806;9.154;2023-08-30T12:37:38;17.20;99.90
10848;DHT22;5477;48.806;9.154;2023-08-30T12:40:07;17.20;99.90
10848;DHT22;5477;48.806;9.154;2023-08-30T12:42:35;17.30;99.90
10848;DHT22;5477;48.806;9.154;2023-08-30T12:45:03;17.50;99.90
10848;DHT22;5477;48.806;9.154;2023-08-30T12:47:31;17.50;99.90
10848;DHT22;5477;48.806;9.154;2023-08-30T12:49:59;17.50;99.90
10848;DHT22;5477;48.806;9.154;2023-08-30T12:52:28;17.60;99.90
10848;DHT22;5477;48.806;9.154;2023-08-30T12:54:57;17.80;99.90
10848;DHT22;5477;48.806;9.154;2023-08-30T12:57:25;17.80;99.90
10848;DHT22;5477;48.806;9.154;2023-08-30T12:59:53;17.90;99.90
10848;DHT22;5477;48.806;9.154;2023-08-30T13:02:21;17.90;99.90
10848;DHT22;5477;48.806;9.154;2023-08-30T13:04:49;18.00;99.90
10848;DHT22;5477;48.806;9.154;2023-08-30T13:07:17;18.00;99.90
10848;DHT22;5477;48.806;9.154;2023-08-30T13:09:45;18.20;99.90
10848;DHT22;5477;48.806;9.154;2023-08-30T13:12:15;18.40;99.90
10848;DHT22;5477;48.806;9.154;2023-08-30T13:14:43;18.70;99.90
10848;DHT22;5477;48.806;9.154;2023-08-30T13:17:11;18.90;99.90
10848;DHT22;5477;48.806;9.154;2023-08-30T13:19:39;19.20;99.90
10848;DHT22;5477;48.806;9.154;2023-08-30T13:22:07;19.60;99.90
10848;DHT22;5477;48.806;9.154;2023-08-30T13:24:36;20.00;99.90
10848;DHT22;5477;48.806;9.154;2023-08-30T13:27:04;20.40;99.90
10848;DHT22;5477;48.806;9.154;2023-08-30T13:29:34;20.90;99.90
10848;DHT22;5477;48.806;9.154;2023-08-30T13:32:02;21.90;99.90
10848;DHT22;5477;48.806;9.154;2023-08-30T13:34:30;22.70;99.90
10848;DHT22;5477;48.806;9.154;2023-08-30T13:36:58;23.20;99.90
10848;DHT22;5477;48.806;9.154;2023-08-30T13:39:26;23.40;99.90
10848;DHT22;5477;48.806;9.154;2023-08-30T13:41:55;23.70;99.90
10848;DHT22;5477;48.806;9.154;2023-08-30T13:44:23;24.10;99.90
10848;DHT22;5477;48.806;9.154;2023-08-30T13:46:52;24.60;99.90
10848;DHT22;5477;48.806;9.154;2023-08-30T13:49:20;24.80;99.90
10848;DHT22;5477;48.806;9.154;2023-08-30T13:51:48;24.90;99.90
10848;DHT22;5477;48.806;9.154;2023-08-30T13:54:16;25.10;99.90
10848;DHT22;5477;48.806;9.154;2023-08-30T13:56:44;25.10;99.90
10848;DHT22;5477;48.806;9.154;2023-08-30T13:59:12;25.10;99.90
10848;DHT22;5477;48.806;9.154;2023-08-30T14:01:40;25.50;99.90
10848;DHT22;5477;48.806;9.154;2023-08-30T14:04:09;25.70;99.90
10848;DHT22;5477;48.806;9.154;2023-08-30T14:06:37;25.20;99.90
10848;DHT22;5477;48.806;9.154;2023-08-30T14:09:05;23.70;99.90
10848;DHT22;5477;48.806;9.154;2023-08-30T14:11:35;23.20;99.90
10848;DHT22;5477;48.806;9.154;2023-08-30T14:14:04;22.80;99.90
10848;DHT22;5477;48.806;9.154;2023-08-30T14:16:32;22.50;99.90
10848;DHT22;5477;48.806;9.154;2023-08-30T14:19:00;22.30;99.90
10848;DHT22;5477;48.806;9.154;2023-08-30T14:21:33;22.10;99.90
10848;DHT22;5477;48.806;9.154;2023-08-30T14:24:01;21.80;99.90
10848;DHT22;5477;48.806;9.154;2023-08-30T14:26:29;21.60;99.90
10848;DHT22;5477;48.806;9.154;2023-08-30T14:28:57;21.50;99.90
10848;DHT22;5477;48.806;9.154;2023-08-30T14:31:25;21.20;99.90
10848;DHT22;5477;48.806;9.154;2023-08-30T14:33:55;21.00;99.90
10848;DHT22;5477;48.806;9.154;2023-08-30T14:36:24;20.90;99.90
10848;DHT22;5477;48.806;9.154;2023-08-30T14:38:53;20.80;99.90
10848;DHT22;5477;48.806;9.154;2023-08-30T14:41:21;20.50;99.90
10848;DHT22;5477;48.806;9.154;2023-08-30T14:43:49;20.40;99.90
10848;DHT22;5477;48.806;9.154;2023-08-30T14:46:17;20.30;99.90
10848;DHT22;5477;48.806;9.154;2023-08-30T14:48:50;20.10;99.90
10848;DHT22;5477;48.806;9.154;2023-08-30T14:51:18;20.00;99.90
10848;DHT22;5477;48.806;9.154;2023-08-30T14:53:46;19.80;99.90
10848;DHT22;5477;48.806;9.154;2023-08-30T14:56:16;19.70;99.90
10848;DHT22;5477;48.806;9.154;2023-08-30T14:58:44;19.60;99.90
10848;DHT22;5477;48.806;9.154;2023-08-30T15:01:16;19.60;99.90
10848;DHT22;5477;48.806;9.154;2023-08-30T15:03:44;19.60;99.90
10848;DHT22;5477;48.806;9.154;2023-08-30T15:06:12;19.50;99.90
10848;DHT22;5477;48.806;9.154;2023-08-30T15:08:40;19.40;99.90
10848;DHT22;5477;48.806;9.154;2023-08-30T15:11:09;19.40;99.90
10848;DHT22;5477;48.806;9.154;2023-08-30T15:13:38;19.50;99.90
10848;DHT22;5477;48.806;9.154;2023-08-30T15:16:06;19.60;99.90
10848;DHT22;5477;48.806;9.154;2023-08-30T15:18:34;19.60;99.90
10848;DHT22;5477;48.806;9.154;2023-08-30T15:21:02;19.70;99.90
10848;DHT22;5477;48.806;9.154;2023-08-30T15:23:30;19.90;99.90
10848;DHT22;5477;48.806;9.154;2023-08-30T15:25:58;20.00;99.90
10848;DHT22;5477;48.806;9.154;2023-08-30T15:28:26;20.10;99.90
10848;DHT22;5477;48.806;9.154;2023-08-30T15:30:56;20.10;99.90
10848;DHT22;5477;48.806;9.154;2023-08-30T15:33:24;20.00;99.90
10848;DHT22;5477;48.806;9.154;2023-08-30T15:35:57;20.00;99.90
10848;DHT22;5477;48.806;9.154;2023-08-30T15:38:26;20.00;99.90
10848;DHT22;5477;48.806;9.154;2023-08-30T15:40:54;20.20;99.90
10848;DHT22;5477;48.806;9.154;2023-08-30T15:43:22;20.50;99.90
10848;DHT22;5477;48.806;9.154;2023-08-30T15:45:50;20.70;99.90
10848;DHT22;5477;48.806;9.154;2023-08-30T15:48:20;20.90;99.90
10848;DHT22;5477;48.806;9.154;2023-08-30T15:50:48;20.90;99.90
10848;DHT22;5477;48.806;9.154;2023-08-30T15:53:16;21.20;99.90
10848;DHT22;5477;48.806;9.154;2023-08-30T15:55:44;21.80;99.90
10848;DHT22;5477;48.806;9.154;2023-08-30T15:58:12;22.30;99.90
10848;DHT22;5477;48.806;9.154;2023-08-30T16:00:40;22.70;99.90
10848;DHT22;5477;48.806;9.154;2023-08-30T16:03:10;23.00;99.90
10848;DHT22;5477;48.806;9.154;2023-08-30T16:05:40;23.40;99.90
10848;DHT22;5477;48.806;9.154;2023-08-30T16:08:08;23.80;99.90
10848;DHT22;5477;48.806;9.154;2023-08-30T16:10:36;23.80;99.90
10848;DHT22;5477;48.806;9.154;2023-08-30T16:13:04;23.50;99.90
10848;DHT22;5477;48.806;9.154;2023-08-30T16:15:32;22.80;99.90
10848;DHT22;5477;48.806;9.154;2023-08-30T16:18:00;22.20;99.90
10848;DHT22;5477;48.806;9.154;2023-08-30T16:20:30;21.70;99.90
10848;DHT22;5477;48.806;9.154;2023-08-30T16:23:00;21.30;99.90
10848;DHT22;5477;48.806;9.154;2023-08-30T16:25:28;20.90;99.90
10848;DHT22;5477;48.806;9.154;2023-08-30T16:27:56;20.80;99.90
10848;DHT22;5477;48.806;9.154;2023-08-30T16:30:24;20.70;99.90
10848;DHT22;5477;48.806;9.154;2023-08-30T16:32:54;20.50;99.90
10848;DHT22;5477;48.806;9.154;2023-08-30T16:35:23;20.30;99.90
10848;DHT22;5477;48.806;9.154;2023-08-30T16:37:52;20.30;99.90
10848;DHT22;5477;48.806;9.154;2023-08-30T16:40:22;20.20;99.90
10848;DHT22;5477;48.806;9.154;2023-08-30T16:42:50;20.20;99.90
10848;DHT22;5477;48.806;9.154;2023-08-30T16:45:18;20.10;99.90
10848;DHT22;5477;48.806;9.154;2023-08-30T16:47:47;20.00;99.90
10848;DHT22;5477;48.806;9.154;2023-08-30T16:50:18;20.10;99.90
10848;DHT22;5477;48.806;9.154;2023-08-30T16:52:45;20.10;99.90
10848;DHT22;5477;48.806;9.154;2023-08-30T16:55:14;20.10;99.90
10848;DHT22;5477;48.806;9.154;2023-08-30T16:57:44;20.10;99.90
10848;DHT22;5477;48.806;9.154;2023-08-30T17:00:13;20.10;99.90
10848;DHT22;5477;48.806;9.154;2023-08-30T17:02:42;20.00;99.90
10848;DHT22;5477;48.806;9.154;2023-08-30T17:05:10;20.00;99.90
10848;DHT22;5477;48.806;9.154;2023-08-30T17:07:38;19.90;99.90